Time;durP1;ratioP1;P1;durP2;ratioP2;P2;SDS_P1;SDS_P2;PMS_P1;PMS_P2;Temp;Humidity;BMP_temperature;BMP_pressure;BME280_temperature;BME280_humidity;BME280_pressure;Samples;Min_cycle;Max_cycle;Signal;HPM_P1;HPM_P2
2022/11/23 00:00:06;;;;;;;;;;;;;;;-0.84;100.00;98185.06;4916166;29;20045;-84
2022/11/23 00:02:33;;;;;;;;;;;;;;;-0.82;100.00;98190.19;4915325;29;20264;-84
2022/11/23 00:05:00;;;;;;;;;;;;;;;-0.83;100.00;98185.91;4916084;29;19935;-85
2022/11/23 00:07:27;;;;;;;;;;;;;;;-0.84;100.00;98182.41;4916113;29;20026;-84
2022/11/23 00:09:54;;;;;;;;;;;;;;;-0.83;100.00;98176.13;4915317;29;20354;-85
2022/11/23 00:12:20;;;;;;;;;;;;;;;-0.83;100.00;98172.66;4914858;29;20026;-84
2022/11/23 00:14:47;;;;;;;;;;;;;;;-0.85;100.00;98169.38;4916019;29;20018;-84
2022/11/23 00:17:14;;;;;;;;;;;;;;;-0.84;100.00;98165.72;4916048;29;19931;-84
2022/11/23 00:19:41;;;;;;;;;;;;;;;-0.83;100.00;98178.78;4915671;29;19931;-85
2022/11/23 00:22:08;;;;;;;;;;;;;;;-0.84;100.00;98178.94;4930688;29;19931;-85
2022/11/23 00:24:35;;;;;;;;;;;;;;;-0.82;100.00;98174.28;4915566;29;20462;-84
2022/11/23 00:27:02;;;;;;;;;;;;;;;-0.80;100.00;98166.97;4930311;29;19931;-85
2022/11/23 00:29:28;;;;;;;;;;;;;;;-0.81;100.00;98168.81;4915535;29;19938;-82
2022/11/23 00:32:09;;;;;;;;;;;;;;;-0.80;100.00;98172.28;4930319;29;19938;-84
2022/11/23 00:34:36;;;;;;;;;;;;;;;-0.78;100.00;98157.81;4898436;29;19931;-85
2022/11/23 00:37:03;;;;;;;;;;;;;;;-0.80;100.00;98162.50;4915833;29;19931;-85
2022/11/23 00:39:30;;;;;;;;;;;;;;;-0.82;100.00;98158.41;4914283;29;19938;-85
2022/11/23 00:41:57;;;;;;;;;;;;;;;-0.81;100.00;98157.38;4914394;29;19937;-84
2022/11/23 00:44:24;;;;;;;;;;;;;;;-0.80;100.00;98167.78;4915192;29;19989;-84
2022/11/23 00:46:51;;;;;;;;;;;;;;;-0.81;100.00;98167.97;4915898;29;19935;-85
2022/11/23 00:49:17;;;;;;;;;;;;;;;-0.83;100.00;98164.72;4898301;29;19931;-85
2022/11/23 00:51:44;;;;;;;;;;;;;;;-0.84;100.00;98169.16;4913974;29;19935;-85
2022/11/23 00:54:12;;;;;;;;;;;;;;;-0.85;100.00;98177.31;4915653;29;19962;-84
2022/11/23 00:56:39;;;;;;;;;;;;;;;-0.87;100.00;98172.22;4914113;29;19935;-84
2022/11/23 00:59:06;;;;;;;;;;;;;;;-0.89;100.00;98168.94;4898178;29;19930;-85
2022/11/23 01:01:33;;;;;;;;;;;;;;;-0.90;100.00;98170.75;4929261;29;19937;-85
2022/11/23 01:04:00;;;;;;;;;;;;;;;-0.93;100.00;98171.16;4914011;29;20309;-85
2022/11/23 01:06:32;;;;;;;;;;;;;;;-0.95;100.00;98165.22;4915622;29;20030;-84
2022/11/23 01:09:01;;;;;;;;;;;;;;;-0.92;100.00;98169.31;4916302;29;19931;-84
2022/11/23 01:11:28;;;;;;;;;;;;;;;-0.95;100.00;98167.06;4902134;29;19931;-84
2022/11/23 01:13:55;;;;;;;;;;;;;;;-0.95;100.00;98157.28;4928103;29;19937;-84
2022/11/23 01:16:33;;;;;;;;;;;;;;;-0.92;100.00;98158.72;4924899;29;19931;-85
2022/11/23 01:19:00;;;;;;;;;;;;;;;-0.93;100.00;98168.50;4918808;29;20404;-85
2022/11/23 01:21:28;;;;;;;;;;;;;;;-0.91;100.00;98161.19;4917998;29;19931;-84
2022/11/23 01:23:55;;;;;;;;;;;;;;;-0.90;100.00;98162.81;4932288;29;19954;-83
2022/11/23 01:26:23;;;;;;;;;;;;;;;-0.92;100.00;98159.53;4918991;29;19939;-85
2022/11/23 01:28:50;;;;;;;;;;;;;;;-0.91;100.00;98161.19;4931561;29;20114;-84
2022/11/23 01:31:21;;;;;;;;;;;;;;;-0.90;100.00;98157.53;4932691;29;19931;-84
2022/11/23 01:33:51;;;;;;;;;;;;;;;-0.88;100.00;98162.63;4941147;29;20426;-86
2022/11/23 01:36:19;;;;;;;;;;;;;;;-0.87;100.00;98167.72;4933602;29;19938;-83
2022/11/23 01:38:46;;;;;;;;;;;;;;;-0.85;100.00;98164.09;4918976;29;19931;-84
2022/11/23 01:41:17;;;;;;;;;;;;;;;-0.89;100.00;98161.81;4919057;29;19931;-85
2022/11/23 01:43:45;;;;;;;;;;;;;;;-0.89;100.00;98164.47;4918751;29;19991;-85
2022/11/23 01:46:12;;;;;;;;;;;;;;;-0.87;100.00;98166.91;4918441;29;20041;-85
2022/11/23 01:48:39;;;;;;;;;;;;;;;-0.85;100.00;98156.13;4919950;29;19942;-84
2022/11/23 01:51:08;;;;;;;;;;;;;;;-0.88;100.00;98163.44;4927531;29;20382;-83
2022/11/23 01:53:35;;;;;;;;;;;;;;;-0.88;100.00;98163.44;4918206;29;19941;-84
2022/11/23 01:56:02;;;;;;;;;;;;;;;-0.87;100.00;98170.38;4901595;29;19931;-84
2022/11/23 01:58:31;;;;;;;;;;;;;;;-0.88;100.00;98158.16;4917295;29;19994;-85
2022/11/23 02:00:58;;;;;;;;;;;;;;;-0.88;100.00;98171.41;4933281;29;20103;-85
2022/11/23 02:03:25;;;;;;;;;;;;;;;-0.85;100.00;98178.16;4919999;29;19937;-84
2022/11/23 02:05:58;;;;;;;;;;;;;;;-0.85;100.00;98174.69;4910337;29;19930;-84
2022/11/23 02:08:24;;;;;;;;;;;;;;;-0.85;100.00;98178.16;4924718;29;19935;-85
2022/11/23 02:10:54;;;;;;;;;;;;;;;-0.87;100.00;98174.84;4925596;29;19931;-84
2022/11/23 02:13:24;;;;;;;;;;;;;;;-0.89;100.00;98184.81;4924764;29;19955;-85
2022/11/23 02:15:58;;;;;;;;;;;;;;;-0.87;100.00;98183.63;4941996;29;19949;-86
2022/11/23 02:18:26;;;;;;;;;;;;;;;-0.81;100.00;98181.22;4927687;29;20313;-84
2022/11/23 02:20:53;;;;;;;;;;;;;;;-0.79;100.00;98179.19;4951407;29;20410;-84
2022/11/23 02:23:29;;;;;;;;;;;;;;;-0.76;100.00;98181.47;4951667;29;19931;-84
2022/11/23 02:26:00;;;;;;;;;;;;;;;-0.75;100.00;98177.81;4937046;29;20043;-85
2022/11/23 02:28:30;;;;;;;;;;;;;;;-0.77;100.00;98178.00;4921253;29;19935;-85
2022/11/23 02:30:58;;;;;;;;;;;;;;;-0.79;100.00;98173.91;4935981;29;20469;-84
2022/11/23 02:33:24;;;;;;;;;;;;;;;-0.79;100.00;98184.50;4936061;29;20562;-85
2022/11/23 02:35:52;;;;;;;;;;;;;;;-0.80;100.00;98185.53;4951324;28;20029;-85
2022/11/23 02:38:21;;;;;;;;;;;;;;;-0.85;100.00;98178.16;4916908;29;19935;-85
2022/11/23 02:40:48;;;;;;;;;;;;;;;-0.85;100.00;98177.31;4925968;29;19931;-84
2022/11/23 02:43:15;;;;;;;;;;;;;;;-0.87;100.00;98173.03;4926639;29;19931;-86
2022/11/23 02:45:50;;;;;;;;;;;;;;;-0.85;100.00;98172.03;4939189;28;20454;-83
2022/11/23 02:48:17;;;;;;;;;;;;;;;-0.91;100.00;98165.69;4918377;29;19937;-83
2022/11/23 02:50:44;;;;;;;;;;;;;;;-0.90;100.00;98178.72;4917951;29;20413;-85
2022/11/23 02:53:11;;;;;;;;;;;;;;;-0.87;100.00;98173.03;4917219;29;20043;-83
2022/11/23 02:55:38;;;;;;;;;;;;;;;-0.83;100.00;98180.59;4916990;29;19931;-84
2022/11/23 02:58:05;;;;;;;;;;;;;;;-0.81;100.00;98175.91;4917145;29;20374;-86
2022/11/23 03:00:33;;;;;;;;;;;;;;;-0.77;100.00;98187.78;4901610;29;19987;-85
2022/11/23 03:03:02;;;;;;;;;;;;;;;-0.76;100.00;98186.75;4901123;29;19931;-86
2022/11/23 03:05:29;;;;;;;;;;;;;;;-0.78;100.00;98179.03;4917066;29;20414;-85
2022/11/23 03:07:56;;;;;;;;;;;;;;;-0.78;100.00;98186.97;4900738;29;19986;-85
2022/11/23 03:10:23;;;;;;;;;;;;;;;-0.80;100.00;98188.16;4916061;29;20025;-86
2022/11/23 03:12:52;;;;;;;;;;;;;;;-0.82;100.00;98190.19;4900249;29;19930;-84
2022/11/23 03:15:19;;;;;;;;;;;;;;;-0.85;100.00;98187.94;4916394;29;19931;-86
2022/11/23 03:17:47;;;;;;;;;;;;;;;-0.87;100.00;98183.63;4916080;29;20053;-89
2022/11/23 03:20:15;;;;;;;;;;;;;;;-0.90;100.00;98170.75;4899832;29;19937;-83
2022/11/23 03:22:45;;;;;;;;;;;;;;;-0.90;100.00;98177.91;4899756;29;19931;-84
2022/11/23 03:25:14;;;;;;;;;;;;;;;-0.85;100.00;98182.63;4884708;29;19931;-84
2022/11/23 03:27:47;;;;;;;;;;;;;;;-0.86;100.00;98179.16;4920288;29;19931;-83
2022/11/23 03:30:14;;;;;;;;;;;;;;;-0.90;100.00;98181.34;4934103;29;19954;-84
2022/11/23 03:32:42;;;;;;;;;;;;;;;-0.89;100.00;98174.22;4925438;29;20317;-82
2022/11/23 03:35:08;;;;;;;;;;;;;;;-0.87;100.00;98180.97;4899573;29;20026;-83
2022/11/23 03:37:47;;;;;;;;;;;;;;;-0.86;100.00;98179.16;4900382;29;19942;-87
2022/11/23 03:40:14;;;;;;;;;;;;;;;-0.85;100.00;98185.28;4915558;29;20021;-87
2022/11/23 03:43:06;;;;;;;;;;;;;;;-0.84;100.00;98187.72;4935725;29;20385;-85
2022/11/23 03:45:33;;;;;;;;;;;;;;;-0.88;100.00;98182.00;4936757;29;19978;-88
2022/11/23 03:48:00;;;;;;;;;;;;;;;-0.90;100.00;98194.59;4935302;29;19935;-87
2022/11/23 03:50:29;;;;;;;;;;;;;;;-0.91;100.00;98187.69;4934169;29;20013;-85
2022/11/23 03:52:56;;;;;;;;;;;;;;;-0.87;100.00;98186.28;4935094;29;19938;-87
2022/11/23 03:55:23;;;;;;;;;;;;;;;-0.82;100.00;98183.06;4915417;29;19931;-86
2022/11/23 03:57:53;;;;;;;;;;;;;;;-0.80;100.00;98188.16;4931764;28;19982;-85
2022/11/23 04:00:20;;;;;;;;;;;;;;;-0.81;100.00;98191.81;4939394;29;19930;-85
2022/11/23 04:02:47;;;;;;;;;;;;;;;-0.80;100.00;98188.97;4910145;29;19935;-82
2022/11/23 04:05:46;;;;;;;;;;;;;;;-0.80;100.00;98182.88;4903109;29;19991;-86
2022/11/23 04:08:33;;;;;;;;;;;;;;;-0.80;100.00;98178.38;4931186;29;20026;-88
2022/11/23 04:11:05;;;;;;;;;;;;;;;-0.77;100.00;98177.19;4944200;28;20007;-84
2022/11/23 04:13:37;;;;;;;;;;;;;;;-0.80;100.00;98178.38;4912395;29;19953;-86
2022/11/23 04:16:06;;;;;;;;;;;;;;;-0.78;100.00;98175.56;4923844;29;19963;-87
2022/11/23 04:18:33;;;;;;;;;;;;;;;-0.81;100.00;98182.06;4941440;29;20915;-87
2022/11/23 04:21:03;;;;;;;;;;;;;;;-0.77;100.00;98183.28;4928120;29;19930;-84
2022/11/23 04:23:30;;;;;;;;;;;;;;;-0.75;100.00;98193.72;4934504;29;19972;-86
2022/11/23 04:25:57;;;;;;;;;;;;;;;-0.73;100.00;98189.06;4944934;29;19931;-89
2022/11/23 04:28:24;;;;;;;;;;;;;;;-0.73;100.00;98199.66;4925132;29;20362;-87
2022/11/23 04:30:52;;;;;;;;;;;;;;;-0.71;100.00;98202.91;4926078;29;19942;-84
2022/11/23 04:33:19;;;;;;;;;;;;;;;-0.70;100.00;98210.66;4590923;28;10001003;-87
2022/11/23 04:35:46;;;;;;;;;;;;;;;-0.71;100.00;98206.41;4935068;29;20412;-85
2022/11/23 04:38:13;;;;;;;;;;;;;;;-0.72;100.00;98206.56;4932292;29;19931;-84
2022/11/23 04:40:41;;;;;;;;;;;;;;;-0.74;100.00;98205.94;4924149;29;19938;-85
2022/11/23 04:43:08;;;;;;;;;;;;;;;-0.71;100.00;98206.41;4922762;29;20296;-86
2022/11/23 04:45:38;;;;;;;;;;;;;;;-0.70;100.00;98201.91;4938240;29;19931;-88
2022/11/23 04:48:10;;;;;;;;;;;;;;;-0.70;100.00;98199.25;4930651;29;19967;-85
2022/11/23 04:50:37;;;;;;;;;;;;;;;-0.69;100.00;98204.34;4930737;29;20422;-86
2022/11/23 04:53:07;;;;;;;;;;;;;;;-0.70;100.00;98205.38;4942156;29;20055;-85
2022/11/23 04:55:46;;;;;;;;;;;;;;;-0.70;100.00;98193.97;4938548;29;19930;-84
2022/11/23 04:58:32;;;;;;;;;;;;;;;-0.70;100.00;98196.59;4924386;29;19981;-86
2022/11/23 05:01:01;;;;;;;;;;;;;;;-0.72;100.00;98191.50;4925275;29;20022;-86
2022/11/23 05:03:30;;;;;;;;;;;;;;;-0.77;100.00;98204.50;4945667;29;19931;-85
2022/11/23 05:06:24;;;;;;;;;;;;;;;-0.76;100.00;98203.50;4936570;29;20416;-86
2022/11/23 05:08:52;;;;;;;;;;;;;;;-0.73;100.00;98202.28;4932518;29;19941;-86
2022/11/23 05:11:40;;;;;;;;;;;;;;;-0.72;100.00;98207.38;4934537;29;19969;-88
2022/11/23 05:14:09;;;;;;;;;;;;;;;-0.70;100.00;98204.56;4929456;29;20322;-85
2022/11/23 05:16:37;;;;;;;;;;;;;;;-0.68;100.00;98202.53;4928579;29;19938;-85
2022/11/23 05:19:04;;;;;;;;;;;;;;;-0.62;100.00;98206.25;4932168;29;19931;-84
2022/11/23 05:21:32;;;;;;;;;;;;;;;-0.64;100.00;98209.06;4916290;29;19989;-88
2022/11/23 05:23:59;;;;;;;;;;;;;;;-0.67;100.00;98204.97;4933692;29;20019;-84
2022/11/23 05:26:27;;;;;;;;;;;;;;;-0.69;100.00;98214.13;4932708;29;20271;-85
2022/11/23 05:28:54;;;;;;;;;;;;;;;-0.72;100.00;98217.97;4915739;29;19937;-84
2022/11/23 05:31:21;;;;;;;;;;;;;;;-0.73;100.00;98215.53;4917532;29;19935;-85
2022/11/23 05:33:50;;;;;;;;;;;;;;;-0.70;100.00;98207.22;4939052;28;20361;-84
2022/11/23 05:36:26;;;;;;;;;;;;;;;-0.68;100.00;98213.94;4909090;29;19938;-84
2022/11/23 05:38:53;;;;;;;;;;;;;;;-0.65;100.00;98212.75;4937774;29;19931;-83
2022/11/23 05:41:27;;;;;;;;;;;;;;;-0.64;100.00;98214.38;4960456;28;20329;-83
2022/11/23 05:43:58;;;;;;;;;;;;;;;-0.69;100.00;98214.13;4922038;29;20381;-85
2022/11/23 05:46:27;;;;;;;;;;;;;;;-0.72;100.00;98217.16;4920631;29;19931;-84
2022/11/23 05:48:54;;;;;;;;;;;;;;;-0.75;100.00;98226.31;4928385;29;19931;-85
2022/11/23 05:51:22;;;;;;;;;;;;;;;-0.73;100.00;98228.78;4948410;29;20380;-84
2022/11/23 05:53:49;;;;;;;;;;;;;;;-0.76;100.00;98218.56;4947747;28;20448;-86
2022/11/23 05:56:23;;;;;;;;;;;;;;;-0.78;100.00;98217.94;4946732;29;19930;-83
2022/11/23 05:59:14;;;;;;;;;;;;;;;-0.76;100.00;98221.19;4586255;29;10000734;-84
2022/11/23 06:01:45;;;;;;;;;;;;;;;-0.73;100.00;98226.16;4918192;29;19931;-83
2022/11/23 06:04:20;;;;;;;;;;;;;;;-0.70;100.00;98225.75;4914110;29;20436;-82
2022/11/23 06:06:47;;;;;;;;;;;;;;;-0.68;100.00;98218.44;4929015;29;19970;-85
2022/11/23 06:09:16;;;;;;;;;;;;;;;-0.71;100.00;98224.09;4928089;29;20278;-84
2022/11/23 06:11:51;;;;;;;;;;;;;;;-0.74;100.00;98214.69;4928928;29;20390;-83
2022/11/23 06:14:19;;;;;;;;;;;;;;;-0.76;100.00;98215.91;4932801;29;19931;-83
2022/11/23 06:16:47;;;;;;;;;;;;;;;-0.80;100.00;98218.13;4931053;29;19939;-82
2022/11/23 06:19:38;;;;;;;;;;;;;;;-0.78;100.00;98208.16;4941311;29;19931;-83
2022/11/23 06:22:05;;;;;;;;;;;;;;;-0.77;100.00;98216.94;4931965;29;19962;-84
2022/11/23 06:24:40;;;;;;;;;;;;;;;-0.75;100.00;98217.56;4927388;29;19946;-82
2022/11/23 06:27:36;;;;;;;;;;;;;;;-0.75;100.00;98212.25;4901729;29;19931;-83
2022/11/23 06:30:13;;;;;;;;;;;;;;;-0.73;100.00;98213.72;4923044;29;20012;-83
2022/11/23 06:32:41;;;;;;;;;;;;;;;-0.67;100.00;98217.41;4938529;29;19930;-85
2022/11/23 06:35:08;;;;;;;;;;;;;;;-0.68;100.00;98218.44;4932174;29;19931;-84
2022/11/23 06:37:39;;;;;;;;;;;;;;;-0.64;100.00;98224.16;4931272;29;20407;-81
2022/11/23 06:40:06;;;;;;;;;;;;;;;-0.58;100.00;98220.72;4929990;29;19977;-84
2022/11/23 06:42:33;;;;;;;;;;;;;;;-0.60;100.00;98220.94;4931517;29;19930;-83
2022/11/23 06:45:12;;;;;;;;;;;;;;;-0.62;100.00;98225.63;4930926;29;19946;-82
2022/11/23 06:47:40;;;;;;;;;;;;;;;-0.57;100.00;98227.69;4913776;29;20299;-85
2022/11/23 06:50:08;;;;;;;;;;;;;;;-0.57;100.00;98231.16;4944372;29;20424;-84
2022/11/23 06:52:36;;;;;;;;;;;;;;;-0.54;100.00;98225.47;4931660;29;19962;-84
2022/11/23 06:55:04;;;;;;;;;;;;;;;-0.52;100.00;98226.09;4933255;29;19931;-85
2022/11/23 06:57:31;;;;;;;;;;;;;;;-0.53;100.00;98224.47;4930991;29;19985;-84
2022/11/23 07:00:01;;;;;;;;;;;;;;;-0.52;100.00;98234.06;4931795;29;19931;-80
2022/11/23 07:02:33;;;;;;;;;;;;;;;-0.50;100.00;98223.25;4925528;29;20006;-83
2022/11/23 07:05:00;;;;;;;;;;;;;;;-0.47;100.00;98231.63;4915942;29;19931;-82
2022/11/23 07:07:30;;;;;;;;;;;;;;;-0.40;100.00;98236.19;4933049;29;19931;-82
2022/11/23 07:10:05;;;;;;;;;;;;;;;-0.43;100.00;98242.69;4947174;29;20022;-84
2022/11/23 07:12:45;;;;;;;;;;;;;;;-0.38;100.00;98248.25;4947666;29;20582;-84
2022/11/23 07:15:15;;;;;;;;;;;;;;;-0.37;100.00;98247.22;4947372;28;20025;-83
2022/11/23 07:17:44;;;;;;;;;;;;;;;-0.37;100.00;98241.09;4947322;29;19978;-83
2022/11/23 07:20:11;;;;;;;;;;;;;;;-0.35;100.00;98249.69;4931272;29;19938;-81
2022/11/23 07:22:38;;;;;;;;;;;;;;;-0.31;100.00;98245.63;4930945;29;19931;-83
2022/11/23 07:25:06;;;;;;;;;;;;;;;-0.26;100.00;98251.16;4947503;29;20368;-84
2022/11/23 07:27:42;;;;;;;;;;;;;;;-0.24;100.00;98252.59;4931151;29;20509;-84
2022/11/23 07:30:11;;;;;;;;;;;;;;;-0.24;100.00;98244.66;4946847;28;19978;-84
2022/11/23 07:32:44;;;;;;;;;;;;;;;-0.23;100.00;98245.47;4930566;29;19930;-83
2022/11/23 07:35:12;;;;;;;;;;;;;;;-0.23;100.00;98233.03;4947014;28;19937;-85
2022/11/23 07:37:42;;;;;;;;;;;;;;;-0.17;100.00;98238.59;4946288;28;19931;-84
2022/11/23 07:40:09;;;;;;;;;;;;;;;-0.15;100.00;98237.38;4946344;28;19930;-83
2022/11/23 07:42:39;;;;;;;;;;;;;;;-0.19;100.00;98238.78;4930129;29;20025;-84
2022/11/23 07:45:13;;;;;;;;;;;;;;;-0.23;100.00;98243.66;4947236;29;19935;-84
2022/11/23 07:47:44;;;;;;;;;;;;;;;-0.24;100.00;98238.53;4930790;29;19977;-84
2022/11/23 07:50:11;;;;;;;;;;;;;;;-0.26;100.00;98237.91;4932002;29;19974;-86
2022/11/23 07:52:40;;;;;;;;;;;;;;;-0.27;100.00;98249.53;4946814;28;20442;-85
2022/11/23 07:55:07;;;;;;;;;;;;;;;-0.33;100.00;98239.69;4932416;29;20334;-85
2022/11/23 07:57:34;;;;;;;;;;;;;;;-0.37;100.00;98238.44;4929857;29;20553;-87
2022/11/23 08:00:01;;;;;;;;;;;;;;;-0.38;100.00;98242.94;4932075;29;19930;-85
2022/11/23 08:02:38;;;;;;;;;;;;;;;-0.34;100.00;98246.00;4930245;29;19938;-82
2022/11/23 08:05:25;;;;;;;;;;;;;;;-0.33;100.00;98243.19;4931832;29;19934;-84
2022/11/23 08:07:57;;;;;;;;;;;;;;;-0.36;100.00;98248.03;4947108;29;20584;-85
2022/11/23 08:10:25;;;;;;;;;;;;;;;-0.30;100.00;98247.28;4930569;29;20425;-84
2022/11/23 08:12:55;;;;;;;;;;;;;;;-0.31;100.00;98256.22;4914631;29;20489;-83
2022/11/23 08:15:22;;;;;;;;;;;;;;;-0.27;100.00;98250.34;4930407;29;19931;-85
2022/11/23 08:17:53;;;;;;;;;;;;;;;-0.25;100.00;98260.78;4931052;29;19931;-81
2022/11/23 08:20:20;;;;;;;;;;;;;;;-0.21;100.00;98254.06;4930660;29;19931;-82
2022/11/23 08:22:47;;;;;;;;;;;;;;;-0.22;100.00;98255.88;4930992;29;20549;-84
2022/11/23 08:25:15;;;;;;;;;;;;;;;-0.24;100.00;98255.25;4913792;29;19938;-82
2022/11/23 08:27:42;;;;;;;;;;;;;;;-0.26;100.00;98251.97;4930255;29;19937;-80
2022/11/23 08:30:09;;;;;;;;;;;;;;;-0.22;100.00;98255.88;4928583;29;19986;-83
2022/11/23 08:32:36;;;;;;;;;;;;;;;-0.18;100.00;98250.19;4930719;29;20034;-82
2022/11/23 08:35:03;;;;;;;;;;;;;;;-0.18;100.00;98255.50;4931104;29;19931;-81
2022/11/23 08:37:30;;;;;;;;;;;;;;;-0.23;100.00;98250.78;4931030;29;19931;-81
2022/11/23 08:39:57;;;;;;;;;;;;;;;-0.18;100.00;98255.50;4931157;29;19931;-82
2022/11/23 08:42:24;;;;;;;;;;;;;;;-0.24;100.00;98255.25;4931138;29;19935;-82
2022/11/23 08:44:51;;;;;;;;;;;;;;;-0.27;100.00;98258.31;4930538;29;20406;-81
2022/11/23 08:47:18;;;;;;;;;;;;;;;-0.29;100.00;98264.81;4930876;29;19930;-83
2022/11/23 08:49:48;;;;;;;;;;;;;;;-0.30;100.00;98265.84;4929318;29;19930;-83
2022/11/23 08:52:15;;;;;;;;;;;;;;;-0.29;100.00;98272.75;4929384;29;20310;-80
2022/11/23 08:54:42;;;;;;;;;;;;;;;-0.31;100.00;98270.28;4930297;29;19930;-82
2022/11/23 08:57:09;;;;;;;;;;;;;;;-0.36;100.00;98274.53;4929047;29;19930;-82
2022/11/23 08:59:36;;;;;;;;;;;;;;;-0.37;100.00;98263.13;4929962;29;19930;-84
2022/11/23 09:02:03;;;;;;;;;;;;;;;-0.41;100.00;98272.47;4925640;29;19935;-84
2022/11/23 09:04:30;;;;;;;;;;;;;;;-0.42;100.00;98270.03;4931523;29;19930;-84
2022/11/23 09:06:58;;;;;;;;;;;;;;;-0.42;100.00;98275.31;4933415;29;19930;-82
2022/11/23 09:09:25;;;;;;;;;;;;;;;-0.42;100.00;98272.66;4931535;29;19999;-84
2022/11/23 09:11:52;;;;;;;;;;;;;;;-0.44;100.00;98273.66;4912400;29;19938;-83
2022/11/23 09:14:20;;;;;;;;;;;;;;;-0.46;100.00;98270.41;4944396;29;20397;-82
2022/11/23 09:16:48;;;;;;;;;;;;;;;-0.46;100.00;98266.91;4944005;28;20421;-83
2022/11/23 09:19:15;;;;;;;;;;;;;;;-0.45;100.00;98269.38;4913708;29;19930;-83
2022/11/23 09:21:42;;;;;;;;;;;;;;;-0.44;100.00;98275.50;4932485;29;20343;-83
2022/11/23 09:24:10;;;;;;;;;;;;;;;-0.41;100.00;98276.94;4937631;29;20456;-84
2022/11/23 09:26:37;;;;;;;;;;;;;;;-0.44;100.00;98273.66;4901307;29;19930;-80
2022/11/23 09:29:05;;;;;;;;;;;;;;;-0.41;100.00;98279.59;4915947;29;19934;-81
2022/11/23 09:31:32;;;;;;;;;;;;;;;-0.38;100.00;98282.72;4933674;29;19937;-85
2022/11/23 09:33:59;;;;;;;;;;;;;;;-0.37;100.00;98279.03;4899610;29;19930;-82
2022/11/23 09:36:26;;;;;;;;;;;;;;;-0.39;100.00;98281.06;4919137;29;19953;-81
2022/11/23 09:38:52;;;;;;;;;;;;;;;-0.42;100.00;98273.50;4918918;29;20019;-81
2022/11/23 09:41:41;;;;;;;;;;;;;;;-0.37;100.00;98272.91;4936062;29;20004;-81
2022/11/23 09:44:27;;;;;;;;;;;;;;;-0.30;100.00;98273.78;4936554;29;19943;-84
2022/11/23 09:47:03;;;;;;;;;;;;;;;-0.33;100.00;98277.66;4936308;29;19993;-81
2022/11/23 09:49:42;;;;;;;;;;;;;;;-0.32;100.00;98273.16;4938782;29;19938;-84
2022/11/23 09:52:17;;;;;;;;;;;;;;;-0.27;100.00;98268.09;4938376;29;19931;-82
2022/11/23 09:54:44;;;;;;;;;;;;;;;-0.27;100.00;98263.59;4934687;29;20878;-79
2022/11/23 09:57:11;;;;;;;;;;;;;;;-0.20;100.00;98276.94;4934522;29;19973;-84
2022/11/23 09:59:39;;;;;;;;;;;;;;;-0.21;100.00;98264.66;4908493;29;19931;-87
2022/11/23 10:02:17;;;;;;;;;;;;;;;-0.19;100.00;98270.59;4935581;29;19930;-84
2022/11/23 10:04:58;;;;;;;;;;;;;;;-0.19;100.00;98262.63;4925404;29;20380;-83
2022/11/23 10:07:24;;;;;;;;;;;;;;;-0.14;100.00;98254.91;4935361;29;20034;-82
2022/11/23 10:09:51;;;;;;;;;;;;;;;-0.17;100.00;98265.94;4933910;29;19930;-82
2022/11/23 10:12:31;;;;;;;;;;;;;;;-0.15;100.00;98261.25;4930120;29;19941;-83
2022/11/23 10:15:17;;;;;;;;;;;;;;;-0.22;100.00;98260.38;4933975;29;20325;-82
2022/11/23 10:17:56;;;;;;;;;;;;;;;-0.22;100.00;98266.50;4935284;29;20037;-82
2022/11/23 10:20:34;;;;;;;;;;;;;;;-0.19;100.00;98262.63;4766440;28;9999866;-82
2022/11/23 10:23:02;;;;;;;;;;;;;;;-0.16;100.00;98270.19;4913999;29;20026;-82
2022/11/23 10:25:37;;;;;;;;;;;;;;;-0.20;100.00;98268.13;4933258;29;19958;-83
2022/11/23 10:28:11;;;;;;;;;;;;;;;-0.14;100.00;98273.50;4932785;29;19931;-83
2022/11/23 10:30:37;;;;;;;;;;;;;;;-0.10;100.00;98274.75;4932038;29;19930;-83
2022/11/23 10:33:17;;;;;;;;;;;;;;;-0.11;100.00;98275.75;4930929;29;20393;-82
2022/11/23 10:35:44;;;;;;;;;;;;;;;-0.11;100.00;98282.88;4923953;29;20299;-82
2022/11/23 10:38:11;;;;;;;;;;;;;;;-0.10;100.00;98276.56;4932310;29;19932;-82
2022/11/23 10:40:53;;;;;;;;;;;;;;;-0.11;100.00;98282.88;4930751;29;19983;-82
2022/11/23 10:43:21;;;;;;;;;;;;;;;-0.11;100.00;98281.06;4931884;29;20036;-83
2022/11/23 10:45:48;;;;;;;;;;;;;;;-0.13;100.00;98272.47;4905119;29;19938;-83
2022/11/23 10:48:34;;;;;;;;;;;;;;;-0.14;100.00;98281.44;4932488;29;19998;-84
2022/11/23 10:51:14;;;;;;;;;;;;;;;-0.13;100.00;98285.72;4913635;29;19937;-88
2022/11/23 10:53:41;;;;;;;;;;;;;;;-0.13;100.00;98285.72;4914548;29;20022;-82
2022/11/23 10:56:10;;;;;;;;;;;;;;;-0.11;100.00;98280.22;4934687;29;19931;-83
2022/11/23 10:58:42;;;;;;;;;;;;;;;-0.12;100.00;98282.06;4932200;29;20269;-82
2022/11/23 11:01:13;;;;;;;;;;;;;;;-0.18;100.00;98288.13;4931819;29;19931;-82
2022/11/23 11:03:40;;;;;;;;;;;;;;;-0.17;100.00;98289.78;4935007;29;19931;-82
2022/11/23 11:06:07;;;;;;;;;;;;;;;-0.23;100.00;98287.91;4936130;29;19930;-81
2022/11/23 11:08:47;;;;;;;;;;;;;;;-0.25;100.00;98297.91;4935149;29;19938;-81
2022/11/23 11:11:22;;;;;;;;;;;;;;;-0.28;100.00;98298.25;4934710;29;19934;-82
2022/11/23 11:13:49;;;;;;;;;;;;;;;-0.27;100.00;98303.38;4935560;29;19970;-81
2022/11/23 11:16:32;;;;;;;;;;;;;;;-0.26;100.00;98301.53;4936157;29;19931;-82
2022/11/23 11:19:00;;;;;;;;;;;;;;;-0.26;100.00;98302.34;4918311;29;20021;-81
2022/11/23 11:21:30;;;;;;;;;;;;;;;-0.24;100.00;98305.66;4934416;29;19978;-82
2022/11/23 11:24:01;;;;;;;;;;;;;;;-0.21;100.00;98312.41;4935157;29;19962;-82
2022/11/23 11:26:29;;;;;;;;;;;;;;;-0.21;100.00;98320.34;4935604;29;20386;-82
2022/11/23 11:29:05;;;;;;;;;;;;;;;-0.26;100.00;98320.91;4931682;29;20394;-81
2022/11/23 11:32:10;;;;;;;;;;;;;;;-0.21;100.00;98323.00;4933081;29;19931;-82
2022/11/23 11:34:55;;;;;;;;;;;;;;;-0.12;100.00;98321.03;4875968;29;19938;-81
2022/11/23 11:37:35;;;;;;;;;;;;;;;-0.13;100.00;98332.66;4876679;29;19938;-82
2022/11/23 11:40:17;;;;;;;;;;;;;;;-0.17;100.00;98339.38;4877763;29;20060;-84
2022/11/23 11:42:50;;;;;;;;;;;;;;;-0.16;100.00;98333.03;4876528;29;20401;-82
2022/11/23 11:45:27;;;;;;;;;;;;;;;-0.19;100.00;98336.91;4865649;29;19935;-85
2022/11/23 11:48:02;;;;;;;;;;;;;;;-0.20;100.00;98329.97;4860445;29;20046;-83
2022/11/23 11:50:29;;;;;;;;;;;;;;;-0.21;100.00;98341.56;4862108;29;20487;-86
2022/11/23 11:53:09;;;;;;;;;;;;;;;-0.19;100.00;98344.03;4861913;29;20012;-84
2022/11/23 11:55:38;;;;;;;;;;;;;;;-0.16;100.00;98344.47;4846703;29;20355;-84
2022/11/23 11:58:09;;;;;;;;;;;;;;;-0.20;100.00;98348.53;4880175;29;19996;-86
2022/11/23 12:00:36;;;;;;;;;;;;;;;-0.18;100.00;98359.75;4845853;29;20030;-82
2022/11/23 12:03:19;;;;;;;;;;;;;;;-0.16;100.00;98354.25;4861580;29;20007;-82
2022/11/23 12:05:47;;;;;;;;;;;;;;;-0.17;100.00;98355.28;4912660;29;19935;-81
2022/11/23 12:08:32;;;;;;;;;;;;;;;-0.17;100.00;98352.63;4934361;29;19941;-81
2022/11/23 12:11:00;;;;;;;;;;;;;;;-0.16;100.00;98363.03;4933519;29;19934;-82
2022/11/23 12:13:28;;;;;;;;;;;;;;;-0.19;100.00;98366.06;4921400;29;19947;-83
2022/11/23 12:16:14;;;;;;;;;;;;;;;-0.19;100.00;98368.72;4583177;29;10000469;-83
2022/11/23 12:18:50;;;;;;;;;;;;;;;-0.22;100.00;98361.16;4930057;29;19976;-82
2022/11/23 12:21:36;;;;;;;;;;;;;;;-0.28;100.00;98361.91;4883456;29;19977;-83
2022/11/23 12:24:12;;;;;;;;;;;;;;;-0.28;100.00;98364.56;4915537;29;19931;-84
2022/11/23 12:26:45;;;;;;;;;;;;;;;-0.26;100.00;98362.53;4914514;29;20040;-82
2022/11/23 12:29:23;;;;;;;;;;;;;;;-0.26;100.00;98370.50;4901071;29;19987;-82
2022/11/23 12:31:53;;;;;;;;;;;;;;;-0.25;100.00;98367.66;4930518;29;20224;-83
2022/11/23 12:34:23;;;;;;;;;;;;;;;-0.21;100.00;98378.69;4914321;29;19931;-82
2022/11/23 12:36:50;;;;;;;;;;;;;;;-0.18;100.00;98378.31;4911060;29;19931;-84
2022/11/23 12:39:34;;;;;;;;;;;;;;;-0.20;100.00;98387.47;4930086;29;20251;-81
2022/11/23 12:42:04;;;;;;;;;;;;;;;-0.18;100.00;98394.22;4926832;29;19931;-83
2022/11/23 12:44:48;;;;;;;;;;;;;;;-0.17;100.00;98393.22;4914757;29;19967;-84
2022/11/23 12:47:34;;;;;;;;;;;;;;;-0.14;100.00;98400.00;4890144;29;20389;-83
2022/11/23 12:50:01;;;;;;;;;;;;;;;-0.13;100.00;98404.28;4913505;29;19934;-81
2022/11/23 12:52:47;;;;;;;;;;;;;;;-0.18;100.00;98404.84;4930571;29;19950;-83